sensor_id;sensor_type;location;lat;lon;timestamp;P1;durP1;ratioP1;P2;durP2;ratioP2
10226;SDS011;15634;48.766;2.272;2022-10-16T00:01:43;5.07;;;2.13;;
10226;SDS011;15634;48.766;2.272;2022-10-16T00:04:10;3.47;;;1.90;;
10226;SDS011;15634;48.766;2.272;2022-10-16T00:06:36;2.92;;;1.92;;
10226;SDS011;15634;48.766;2.272;2022-10-16T00:09:03;2.88;;;2.03;;
10226;SDS011;15634;48.766;2.272;2022-10-16T00:11:32;2.58;;;1.98;;
10226;SDS011;15634;48.766;2.272;2022-10-16T00:14:02;5.25;;;2.10;;
10226;SDS011;15634;48.766;2.272;2022-10-16T00:16:30;4.03;;;2.10;;
10226;SDS011;15634;48.766;2.272;2022-10-16T00:18:58;4.80;;;2.10;;
10226;SDS011;15634;48.766;2.272;2022-10-16T00:21:25;3.15;;;1.90;;
10226;SDS011;15634;48.766;2.272;2022-10-16T00:23:53;5.15;;;2.35;;
10226;SDS011;15634;48.766;2.272;2022-10-16T00:26:21;3.13;;;2.03;;
10226;SDS011;15634;48.766;2.272;2022-10-16T00:28:48;3.10;;;2.10;;
10226;SDS011;15634;48.766;2.272;2022-10-16T00:31:16;4.38;;;2.35;;
10226;SDS011;15634;48.766;2.272;2022-10-16T00:33:43;6.15;;;2.47;;
10226;SDS011;15634;48.766;2.272;2022-10-16T00:36:14;3.60;;;2.05;;
10226;SDS011;15634;48.766;2.272;2022-10-16T00:38:42;3.75;;;2.17;;
10226;SDS011;15634;48.766;2.272;2022-10-16T00:41:09;3.42;;;2.00;;
10226;SDS011;15634;48.766;2.272;2022-10-16T00:43:39;3.33;;;2.25;;
10226;SDS011;15634;48.766;2.272;2022-10-16T00:46:10;3.13;;;2.17;;
10226;SDS011;15634;48.766;2.272;2022-10-16T00:51:06;4.10;;;2.33;;
10226;SDS011;15634;48.766;2.272;2022-10-16T00:53:35;2.90;;;2.10;;
10226;SDS011;15634;48.766;2.272;2022-10-16T00:56:01;6.30;;;2.45;;
10226;SDS011;15634;48.766;2.272;2022-10-16T00:58:28;3.53;;;2.22;;
10226;SDS011;15634;48.766;2.272;2022-10-16T01:00:55;4.10;;;2.58;;
10226;SDS011;15634;48.766;2.272;2022-10-16T01:03:23;4.50;;;2.08;;
10226;SDS011;15634;48.766;2.272;2022-10-16T01:05:54;5.07;;;2.42;;
10226;SDS011;15634;48.766;2.272;2022-10-16T01:08:31;4.00;;;2.47;;
10226;SDS011;15634;48.766;2.272;2022-10-16T01:13:32;4.45;;;2.30;;
10226;SDS011;15634;48.766;2.272;2022-10-16T01:16:03;3.30;;;1.90;;
10226;SDS011;15634;48.766;2.272;2022-10-16T01:18:33;6.47;;;2.42;;
10226;SDS011;15634;48.766;2.272;2022-10-16T01:21:03;4.95;;;2.15;;
10226;SDS011;15634;48.766;2.272;2022-10-16T01:23:36;2.63;;;2.10;;
10226;SDS011;15634;48.766;2.272;2022-10-16T01:26:11;3.75;;;1.98;;
10226;SDS011;15634;48.766;2.272;2022-10-16T01:31:10;4.35;;;2.00;;
10226;SDS011;15634;48.766;2.272;2022-10-16T01:33:40;3.28;;;1.95;;
10226;SDS011;15634;48.766;2.272;2022-10-16T01:36:10;4.35;;;2.00;;
10226;SDS011;15634;48.766;2.272;2022-10-16T01:38:40;4.15;;;1.77;;
10226;SDS011;15634;48.766;2.272;2022-10-16T01:41:08;3.08;;;1.80;;
10226;SDS011;15634;48.766;2.272;2022-10-16T01:43:37;3.47;;;2.22;;
10226;SDS011;15634;48.766;2.272;2022-10-16T01:46:08;2.70;;;1.88;;
10226;SDS011;15634;48.766;2.272;2022-10-16T01:48:34;4.82;;;1.90;;
10226;SDS011;15634;48.766;2.272;2022-10-16T01:51:03;7.03;;;1.90;;
10226;SDS011;15634;48.766;2.272;2022-10-16T01:53:31;2.42;;;1.70;;
10226;SDS011;15634;48.766;2.272;2022-10-16T01:55:58;3.63;;;1.80;;
10226;SDS011;15634;48.766;2.272;2022-10-16T01:58:25;2.20;;;1.50;;
10226;SDS011;15634;48.766;2.272;2022-10-16T02:00:52;2.60;;;1.60;;
10226;SDS011;15634;48.766;2.272;2022-10-16T02:03:20;5.00;;;1.77;;
10226;SDS011;15634;48.766;2.272;2022-10-16T02:05:49;3.20;;;1.60;;
10226;SDS011;15634;48.766;2.272;2022-10-16T02:08:17;2.92;;;1.73;;
10226;SDS011;15634;48.766;2.272;2022-10-16T02:10:43;3.25;;;1.30;;
10226;SDS011;15634;48.766;2.272;2022-10-16T02:13:11;3.78;;;1.70;;
10226;SDS011;15634;48.766;2.272;2022-10-16T02:15:39;8.18;;;1.90;;
10226;SDS011;15634;48.766;2.272;2022-10-16T02:18:06;3.35;;;1.48;;
10226;SDS011;15634;48.766;2.272;2022-10-16T02:20:36;1.95;;;1.50;;
10226;SDS011;15634;48.766;2.272;2022-10-16T02:23:06;1.77;;;1.50;;
10226;SDS011;15634;48.766;2.272;2022-10-16T02:25:40;3.10;;;1.33;;
10226;SDS011;15634;48.766;2.272;2022-10-16T02:28:08;3.47;;;1.70;;
10226;SDS011;15634;48.766;2.272;2022-10-16T02:30:38;1.90;;;1.40;;
10226;SDS011;15634;48.766;2.272;2022-10-16T02:33:07;2.58;;;1.60;;
10226;SDS011;15634;48.766;2.272;2022-10-16T02:35:36;1.85;;;1.40;;
10226;SDS011;15634;48.766;2.272;2022-10-16T02:38:04;2.55;;;1.48;;
10226;SDS011;15634;48.766;2.272;2022-10-16T02:40:31;3.97;;;1.70;;
10226;SDS011;15634;48.766;2.272;2022-10-16T02:42:58;4.20;;;1.63;;
10226;SDS011;15634;48.766;2.272;2022-10-16T02:45:24;3.03;;;1.38;;
10226;SDS011;15634;48.766;2.272;2022-10-16T02:47:51;3.80;;;1.65;;
10226;SDS011;15634;48.766;2.272;2022-10-16T02:50:18;3.08;;;1.63;;
10226;SDS011;15634;48.766;2.272;2022-10-16T02:52:46;3.80;;;1.83;;
10226;SDS011;15634;48.766;2.272;2022-10-16T02:55:12;5.80;;;1.77;;
10226;SDS011;15634;48.766;2.272;2022-10-16T02:57:39;5.60;;;1.60;;
10226;SDS011;15634;48.766;2.272;2022-10-16T03:00:06;2.88;;;1.55;;
10226;SDS011;15634;48.766;2.272;2022-10-16T03:02:33;2.53;;;1.60;;
10226;SDS011;15634;48.766;2.272;2022-10-16T03:05:00;3.60;;;1.52;;
10226;SDS011;15634;48.766;2.272;2022-10-16T03:07:27;5.20;;;1.60;;
10226;SDS011;15634;48.766;2.272;2022-10-16T03:09:55;2.83;;;1.55;;
10226;SDS011;15634;48.766;2.272;2022-10-16T03:12:22;2.45;;;1.63;;
10226;SDS011;15634;48.766;2.272;2022-10-16T03:14:48;2.35;;;1.20;;
10226;SDS011;15634;48.766;2.272;2022-10-16T03:17:15;2.20;;;1.20;;
10226;SDS011;15634;48.766;2.272;2022-10-16T03:19:43;2.20;;;1.33;;
10226;SDS011;15634;48.766;2.272;2022-10-16T03:22:09;3.10;;;1.50;;
10226;SDS011;15634;48.766;2.272;2022-10-16T03:24:36;1.38;;;1.27;;
10226;SDS011;15634;48.766;2.272;2022-10-16T03:27:04;2.00;;;1.23;;
10226;SDS011;15634;48.766;2.272;2022-10-16T03:29:30;1.50;;;1.15;;
10226;SDS011;15634;48.766;2.272;2022-10-16T03:31:58;2.28;;;1.10;;
10226;SDS011;15634;48.766;2.272;2022-10-16T03:34:24;3.53;;;1.38;;
10226;SDS011;15634;48.766;2.272;2022-10-16T03:36:51;5.13;;;1.20;;
10226;SDS011;15634;48.766;2.272;2022-10-16T03:39:18;3.53;;;1.60;;
10226;SDS011;15634;48.766;2.272;2022-10-16T03:41:44;2.70;;;1.45;;
10226;SDS011;15634;48.766;2.272;2022-10-16T03:44:13;5.20;;;1.50;;
10226;SDS011;15634;48.766;2.272;2022-10-16T03:46:40;2.80;;;1.35;;
10226;SDS011;15634;48.766;2.272;2022-10-16T03:49:07;3.83;;;1.30;;
10226;SDS011;15634;48.766;2.272;2022-10-16T03:51:33;2.10;;;1.50;;
10226;SDS011;15634;48.766;2.272;2022-10-16T03:54:00;3.30;;;1.50;;
10226;SDS011;15634;48.766;2.272;2022-10-16T03:56:26;2.45;;;1.38;;
10226;SDS011;15634;48.766;2.272;2022-10-16T03:58:53;1.83;;;1.45;;
10226;SDS011;15634;48.766;2.272;2022-10-16T04:01:21;3.35;;;1.38;;
10226;SDS011;15634;48.766;2.272;2022-10-16T04:03:47;3.35;;;1.30;;
10226;SDS011;15634;48.766;2.272;2022-10-16T04:06:14;3.97;;;1.58;;
10226;SDS011;15634;48.766;2.272;2022-10-16T04:08:42;4.15;;;1.50;;
10226;SDS011;15634;48.766;2.272;2022-10-16T04:11:08;3.03;;;1.40;;
10226;SDS011;15634;48.766;2.272;2022-10-16T04:13:35;2.60;;;1.63;;
10226;SDS011;15634;48.766;2.272;2022-10-16T04:16:02;6.47;;;1.73;;
10226;SDS011;15634;48.766;2.272;2022-10-16T04:18:30;2.30;;;1.10;;
10226;SDS011;15634;48.766;2.272;2022-10-16T04:20:56;1.98;;;1.20;;
10226;SDS011;15634;48.766;2.272;2022-10-16T04:23:23;1.92;;;1.10;;
10226;SDS011;15634;48.766;2.272;2022-10-16T04:25:50;3.85;;;1.27;;
10226;SDS011;15634;48.766;2.272;2022-10-16T04:28:17;4.28;;;1.27;;
10226;SDS011;15634;48.766;2.272;2022-10-16T04:30:43;4.25;;;1.73;;
10226;SDS011;15634;48.766;2.272;2022-10-16T04:33:10;2.15;;;1.27;;
10226;SDS011;15634;48.766;2.272;2022-10-16T04:35:39;1.48;;;1.20;;
10226;SDS011;15634;48.766;2.272;2022-10-16T04:38:05;6.50;;;1.60;;
10226;SDS011;15634;48.766;2.272;2022-10-16T04:40:32;2.47;;;1.80;;
10226;SDS011;15634;48.766;2.272;2022-10-16T04:43:01;1.45;;;0.93;;
10226;SDS011;15634;48.766;2.272;2022-10-16T04:45:28;2.65;;;1.20;;
10226;SDS011;15634;48.766;2.272;2022-10-16T04:47:56;1.92;;;1.25;;
10226;SDS011;15634;48.766;2.272;2022-10-16T04:50:23;1.95;;;0.95;;
10226;SDS011;15634;48.766;2.272;2022-10-16T04:52:51;2.80;;;1.25;;
10226;SDS011;15634;48.766;2.272;2022-10-16T04:55:17;3.33;;;1.20;;
10226;SDS011;15634;48.766;2.272;2022-10-16T04:57:44;2.10;;;1.20;;
10226;SDS011;15634;48.766;2.272;2022-10-16T05:00:11;2.28;;;1.40;;
10226;SDS011;15634;48.766;2.272;2022-10-16T05:02:38;3.00;;;0.93;;
10226;SDS011;15634;48.766;2.272;2022-10-16T05:05:05;2.30;;;1.40;;
10226;SDS011;15634;48.766;2.272;2022-10-16T05:07:32;1.80;;;1.02;;
10226;SDS011;15634;48.766;2.272;2022-10-16T05:09:59;1.45;;;1.10;;
10226;SDS011;15634;48.766;2.272;2022-10-16T05:12:26;2.85;;;1.02;;
10226;SDS011;15634;48.766;2.272;2022-10-16T05:14:53;1.00;;;0.93;;
10226;SDS011;15634;48.766;2.272;2022-10-16T05:17:23;1.95;;;1.30;;
10226;SDS011;15634;48.766;2.272;2022-10-16T05:19:49;1.67;;;1.40;;
10226;SDS011;15634;48.766;2.272;2022-10-16T05:22:16;1.30;;;1.20;;
10226;SDS011;15634;48.766;2.272;2022-10-16T05:24:43;3.47;;;1.10;;
10226;SDS011;15634;48.766;2.272;2022-10-16T05:27:11;3.75;;;1.42;;
10226;SDS011;15634;48.766;2.272;2022-10-16T05:29:43;3.88;;;1.50;;
10226;SDS011;15634;48.766;2.272;2022-10-16T05:32:10;4.60;;;1.60;;
10226;SDS011;15634;48.766;2.272;2022-10-16T05:34:37;4.22;;;1.63;;
10226;SDS011;15634;48.766;2.272;2022-10-16T05:37:03;2.95;;;1.40;;
10226;SDS011;15634;48.766;2.272;2022-10-16T05:39:30;4.63;;;1.48;;
10226;SDS011;15634;48.766;2.272;2022-10-16T05:41:56;2.72;;;1.33;;
10226;SDS011;15634;48.766;2.272;2022-10-16T05:44:24;3.70;;;1.50;;
10226;SDS011;15634;48.766;2.272;2022-10-16T05:46:51;1.98;;;1.00;;
10226;SDS011;15634;48.766;2.272;2022-10-16T05:49:17;3.75;;;1.20;;
10226;SDS011;15634;48.766;2.272;2022-10-16T05:51:44;3.45;;;1.27;;
10226;SDS011;15634;48.766;2.272;2022-10-16T05:54:10;1.35;;;1.25;;
10226;SDS011;15634;48.766;2.272;2022-10-16T05:56:37;1.42;;;1.33;;
10226;SDS011;15634;48.766;2.272;2022-10-16T05:59:04;1.77;;;1.40;;
10226;SDS011;15634;48.766;2.272;2022-10-16T06:01:32;9.75;;;5.40;;
10226;SDS011;15634;48.766;2.272;2022-10-16T06:03:59;5.22;;;3.20;;
10226;SDS011;15634;48.766;2.272;2022-10-16T06:06:26;3.03;;;1.60;;
10226;SDS011;15634;48.766;2.272;2022-10-16T06:08:54;2.80;;;1.20;;
10226;SDS011;15634;48.766;2.272;2022-10-16T06:11:22;2.30;;;1.50;;
10226;SDS011;15634;48.766;2.272;2022-10-16T06:13:51;1.67;;;1.38;;
10226;SDS011;15634;48.766;2.272;2022-10-16T06:16:17;3.67;;;1.50;;
10226;SDS011;15634;48.766;2.272;2022-10-16T06:18:45;3.78;;;1.45;;
10226;SDS011;15634;48.766;2.272;2022-10-16T06:21:14;1.80;;;1.25;;
10226;SDS011;15634;48.766;2.272;2022-10-16T06:23:42;2.47;;;1.60;;
10226;SDS011;15634;48.766;2.272;2022-10-16T06:26:11;4.85;;;2.33;;
10226;SDS011;15634;48.766;2.272;2022-10-16T06:28:38;2.60;;;1.92;;
10226;SDS011;15634;48.766;2.272;2022-10-16T06:31:06;3.90;;;2.45;;
10226;SDS011;15634;48.766;2.272;2022-10-16T06:33:33;4.18;;;2.38;;
10226;SDS011;15634;48.766;2.272;2022-10-16T06:36:02;2.50;;;1.90;;
10226;SDS011;15634;48.766;2.272;2022-10-16T06:38:29;5.82;;;1.90;;
10226;SDS011;15634;48.766;2.272;2022-10-16T06:40:56;2.08;;;1.45;;
10226;SDS011;15634;48.766;2.272;2022-10-16T06:43:22;3.45;;;1.65;;
10226;SDS011;15634;48.766;2.272;2022-10-16T06:45:52;2.90;;;1.63;;
10226;SDS011;15634;48.766;2.272;2022-10-16T06:48:19;2.70;;;1.85;;
10226;SDS011;15634;48.766;2.272;2022-10-16T06:50:54;2.40;;;2.00;;
10226;SDS011;15634;48.766;2.272;2022-10-16T06:53:23;5.55;;;1.77;;
10226;SDS011;15634;48.766;2.272;2022-10-16T06:55:50;4.60;;;2.00;;
10226;SDS011;15634;48.766;2.272;2022-10-16T06:58:17;2.95;;;2.00;;
10226;SDS011;15634;48.766;2.272;2022-10-16T07:00:43;2.55;;;1.80;;
10226;SDS011;15634;48.766;2.272;2022-10-16T07:03:10;3.08;;;2.10;;
10226;SDS011;15634;48.766;2.272;2022-10-16T07:05:37;6.32;;;2.15;;
10226;SDS011;15634;48.766;2.272;2022-10-16T07:08:04;3.05;;;2.05;;
10226;SDS011;15634;48.766;2.272;2022-10-16T07:10:32;2.50;;;1.83;;
10226;SDS011;15634;48.766;2.272;2022-10-16T07:12:59;2.40;;;1.60;;
10226;SDS011;15634;48.766;2.272;2022-10-16T07:15:25;5.07;;;1.90;;
10226;SDS011;15634;48.766;2.272;2022-10-16T07:17:52;1.73;;;1.50;;
10226;SDS011;15634;48.766;2.272;2022-10-16T07:20:19;4.85;;;1.85;;
10226;SDS011;15634;48.766;2.272;2022-10-16T07:22:46;4.47;;;2.10;;
10226;SDS011;15634;48.766;2.272;2022-10-16T07:25:13;3.53;;;2.20;;
10226;SDS011;15634;48.766;2.272;2022-10-16T07:27:41;4.00;;;2.25;;
10226;SDS011;15634;48.766;2.272;2022-10-16T07:30:08;4.13;;;2.20;;
10226;SDS011;15634;48.766;2.272;2022-10-16T07:32:35;5.07;;;2.53;;
10226;SDS011;15634;48.766;2.272;2022-10-16T07:35:01;5.38;;;2.33;;
10226;SDS011;15634;48.766;2.272;2022-10-16T07:37:28;6.25;;;2.70;;
10226;SDS011;15634;48.766;2.272;2022-10-16T07:39:54;5.63;;;2.50;;
10226;SDS011;15634;48.766;2.272;2022-10-16T07:42:21;4.72;;;2.63;;
10226;SDS011;15634;48.766;2.272;2022-10-16T07:44:49;12.38;;;6.50;;
10226;SDS011;15634;48.766;2.272;2022-10-16T07:47:16;11.38;;;6.28;;
10226;SDS011;15634;48.766;2.272;2022-10-16T07:49:42;18.77;;;8.07;;
10226;SDS011;15634;48.766;2.272;2022-10-16T07:52:09;12.90;;;6.43;;
10226;SDS011;15634;48.766;2.272;2022-10-16T07:54:35;6.15;;;3.25;;
10226;SDS011;15634;48.766;2.272;2022-10-16T07:57:02;5.20;;;3.10;;
10226;SDS011;15634;48.766;2.272;2022-10-16T07:59:28;6.07;;;3.28;;
10226;SDS011;15634;48.766;2.272;2022-10-16T08:01:56;3.40;;;2.67;;
10226;SDS011;15634;48.766;2.272;2022-10-16T08:04:23;9.77;;;5.13;;
10226;SDS011;15634;48.766;2.272;2022-10-16T08:06:49;8.93;;;4.10;;
10226;SDS011;15634;48.766;2.272;2022-10-16T08:09:16;4.22;;;2.67;;
10226;SDS011;15634;48.766;2.272;2022-10-16T08:11:42;5.55;;;2.53;;
10226;SDS011;15634;48.766;2.272;2022-10-16T08:14:09;3.83;;;2.30;;
10226;SDS011;15634;48.766;2.272;2022-10-16T08:16:35;3.67;;;2.20;;
10226;SDS011;15634;48.766;2.272;2022-10-16T08:19:03;5.30;;;2.50;;
10226;SDS011;15634;48.766;2.272;2022-10-16T08:21:30;4.28;;;2.20;;
10226;SDS011;15634;48.766;2.272;2022-10-16T08:23:56;2.33;;;2.00;;
10226;SDS011;15634;48.766;2.272;2022-10-16T08:26:24;4.88;;;2.22;;
10226;SDS011;15634;48.766;2.272;2022-10-16T08:28:51;3.35;;;1.90;;
10226;SDS011;15634;48.766;2.272;2022-10-16T08:31:18;4.32;;;2.60;;
10226;SDS011;15634;48.766;2.272;2022-10-16T08:33:44;6.00;;;2.95;;
10226;SDS011;15634;48.766;2.272;2022-10-16T08:36:14;6.07;;;3.30;;
10226;SDS011;15634;48.766;2.272;2022-10-16T08:38:42;8.00;;;2.03;;
10226;SDS011;15634;48.766;2.272;2022-10-16T08:41:14;3.55;;;2.35;;
10226;SDS011;15634;48.766;2.272;2022-10-16T08:46:43;4.57;;;2.95;;
10226;SDS011;15634;48.766;2.272;2022-10-16T08:49:14;6.18;;;3.00;;
10226;SDS011;15634;48.766;2.272;2022-10-16T08:51:42;5.55;;;3.10;;
10226;SDS011;15634;48.766;2.272;2022-10-16T08:54:15;5.75;;;3.50;;
10226;SDS011;15634;48.766;2.272;2022-10-16T08:56:47;3.22;;;2.63;;
10226;SDS011;15634;48.766;2.272;2022-10-16T08:59:14;6.10;;;3.50;;
10226;SDS011;15634;48.766;2.272;2022-10-16T09:01:44;5.55;;;3.58;;
10226;SDS011;15634;48.766;2.272;2022-10-16T09:04:22;5.47;;;4.10;;
10226;SDS011;15634;48.766;2.272;2022-10-16T09:07:14;6.55;;;4.63;;
10226;SDS011;15634;48.766;2.272;2022-10-16T09:09:56;6.32;;;4.15;;
10226;SDS011;15634;48.766;2.272;2022-10-16T09:12:28;4.28;;;3.50;;
10226;SDS011;15634;48.766;2.272;2022-10-16T09:15:01;5.15;;;3.20;;
10226;SDS011;15634;48.766;2.272;2022-10-16T09:17:34;4.13;;;3.22;;
10226;SDS011;15634;48.766;2.272;2022-10-16T09:20:12;5.68;;;3.40;;
10226;SDS011;15634;48.766;2.272;2022-10-16T09:22:44;5.18;;;2.90;;
10226;SDS011;15634;48.766;2.272;2022-10-16T09:25:11;3.70;;;2.70;;
10226;SDS011;15634;48.766;2.272;2022-10-16T09:27:40;5.47;;;2.90;;
10226;SDS011;15634;48.766;2.272;2022-10-16T09:30:12;4.03;;;2.63;;
10226;SDS011;15634;48.766;2.272;2022-10-16T09:32:39;4.32;;;2.22;;
10226;SDS011;15634;48.766;2.272;2022-10-16T09:35:11;4.00;;;2.90;;
10226;SDS011;15634;48.766;2.272;2022-10-16T09:37:40;7.57;;;2.38;;
10226;SDS011;15634;48.766;2.272;2022-10-16T09:40:23;4.28;;;2.38;;
10226;SDS011;15634;48.766;2.272;2022-10-16T09:42:51;4.63;;;2.40;;
10226;SDS011;15634;48.766;2.272;2022-10-16T09:45:20;1.92;;;1.73;;
10226;SDS011;15634;48.766;2.272;2022-10-16T09:47:47;2.30;;;1.90;;
10226;SDS011;15634;48.766;2.272;2022-10-16T09:50:20;3.03;;;1.95;;
10226;SDS011;15634;48.766;2.272;2022-10-16T09:52:50;3.75;;;2.05;;
10226;SDS011;15634;48.766;2.272;2022-10-16T09:55:17;2.85;;;1.85;;
10226;SDS011;15634;48.766;2.272;2022-10-16T09:57:50;2.78;;;1.90;;
10226;SDS011;15634;48.766;2.272;2022-10-16T10:00:17;3.63;;;1.85;;
10226;SDS011;15634;48.766;2.272;2022-10-16T10:02:44;3.55;;;2.20;;
10226;SDS011;15634;48.766;2.272;2022-10-16T10:05:18;2.08;;;1.75;;
10226;SDS011;15634;48.766;2.272;2022-10-16T10:07:46;2.75;;;1.92;;
10226;SDS011;15634;48.766;2.272;2022-10-16T10:10:19;3.05;;;2.00;;
10226;SDS011;15634;48.766;2.272;2022-10-16T10:12:47;1.73;;;1.60;;
10226;SDS011;15634;48.766;2.272;2022-10-16T10:15:13;3.83;;;2.22;;
10226;SDS011;15634;48.766;2.272;2022-10-16T10:17:45;4.57;;;2.35;;
10226;SDS011;15634;48.766;2.272;2022-10-16T10:20:15;5.35;;;2.10;;
10226;SDS011;15634;48.766;2.272;2022-10-16T10:22:50;2.67;;;1.80;;
10226;SDS011;15634;48.766;2.272;2022-10-16T10:28:16;4.47;;;1.92;;
10226;SDS011;15634;48.766;2.272;2022-10-16T10:30:48;4.03;;;1.98;;
10226;SDS011;15634;48.766;2.272;2022-10-16T10:33:21;3.85;;;2.13;;
10226;SDS011;15634;48.766;2.272;2022-10-16T10:35:53;2.45;;;1.88;;
10226;SDS011;15634;48.766;2.272;2022-10-16T10:38:30;2.65;;;1.90;;
10226;SDS011;15634;48.766;2.272;2022-10-16T10:41:09;2.50;;;1.73;;
10226;SDS011;15634;48.766;2.272;2022-10-16T10:43:49;2.30;;;1.80;;
10226;SDS011;15634;48.766;2.272;2022-10-16T10:46:23;2.45;;;1.67;;
10226;SDS011;15634;48.766;2.272;2022-10-16T10:49:06;2.90;;;1.92;;
10226;SDS011;15634;48.766;2.272;2022-10-16T10:51:40;2.88;;;1.83;;
10226;SDS011;15634;48.766;2.272;2022-10-16T10:56:46;2.40;;;1.45;;
10226;SDS011;15634;48.766;2.272;2022-10-16T11:02:18;2.88;;;2.00;;
10226;SDS011;15634;48.766;2.272;2022-10-16T11:07:25;3.10;;;1.60;;
10226;SDS011;15634;48.766;2.272;2022-10-16T11:09:55;2.10;;;1.38;;
10226;SDS011;15634;48.766;2.272;2022-10-16T11:12:27;3.95;;;1.35;;
10226;SDS011;15634;48.766;2.272;2022-10-16T11:14:57;2.20;;;1.70;;
10226;SDS011;15634;48.766;2.272;2022-10-16T11:17:27;2.83;;;1.80;;
10226;SDS011;15634;48.766;2.272;2022-10-16T11:19:57;3.38;;;2.17;;
10226;SDS011;15634;48.766;2.272;2022-10-16T11:22:30;2.03;;;1.45;;
10226;SDS011;15634;48.766;2.272;2022-10-16T11:24:59;1.40;;;1.30;;
10226;SDS011;15634;48.766;2.272;2022-10-16T11:27:33;3.65;;;1.70;;
10226;SDS011;15634;48.766;2.272;2022-10-16T11:30:03;1.50;;;1.40;;
10226;SDS011;15634;48.766;2.272;2022-10-16T11:32:33;4.47;;;1.80;;
10226;SDS011;15634;48.766;2.272;2022-10-16T11:35:02;1.95;;;1.65;;
10226;SDS011;15634;48.766;2.272;2022-10-16T11:37:38;2.00;;;1.58;;
10226;SDS011;15634;48.766;2.272;2022-10-16T11:40:14;1.65;;;1.40;;
10226;SDS011;15634;48.766;2.272;2022-10-16T11:42:48;2.40;;;1.90;;
10226;SDS011;15634;48.766;2.272;2022-10-16T11:45:23;2.97;;;2.10;;
10226;SDS011;15634;48.766;2.272;2022-10-16T11:47:54;2.67;;;1.95;;
10226;SDS011;15634;48.766;2.272;2022-10-16T11:50:26;1.98;;;1.73;;
10226;SDS011;15634;48.766;2.272;2022-10-16T11:52:57;4.05;;;2.08;;
10226;SDS011;15634;48.766;2.272;2022-10-16T11:55:27;2.33;;;1.80;;
10226;SDS011;15634;48.766;2.272;2022-10-16T11:57:59;2.45;;;1.38;;
10226;SDS011;15634;48.766;2.272;2022-10-16T12:00:28;1.88;;;1.70;;
10226;SDS011;15634;48.766;2.272;2022-10-16T12:02:58;3.53;;;1.85;;
10226;SDS011;15634;48.766;2.272;2022-10-16T12:05:33;4.30;;;2.50;;
10226;SDS011;15634;48.766;2.272;2022-10-16T12:08:06;2.65;;;1.88;;
10226;SDS011;15634;48.766;2.272;2022-10-16T12:10:36;3.20;;;2.03;;
10226;SDS011;15634;48.766;2.272;2022-10-16T12:13:05;7.85;;;3.50;;
10226;SDS011;15634;48.766;2.272;2022-10-16T12:16:03;2.97;;;1.98;;
10226;SDS011;15634;48.766;2.272;2022-10-16T12:18:31;2.03;;;1.60;;
10226;SDS011;15634;48.766;2.272;2022-10-16T12:20:58;2.30;;;1.75;;
10226;SDS011;15634;48.766;2.272;2022-10-16T12:23:30;2.45;;;1.70;;
10226;SDS011;15634;48.766;2.272;2022-10-16T12:25:57;2.67;;;2.00;;
10226;SDS011;15634;48.766;2.272;2022-10-16T12:28:27;2.75;;;1.77;;
10226;SDS011;15634;48.766;2.272;2022-10-16T12:30:55;6.47;;;3.10;;
10226;SDS011;15634;48.766;2.272;2022-10-16T12:33:23;7.25;;;3.45;;
10226;SDS011;15634;48.766;2.272;2022-10-16T12:35:51;4.32;;;2.80;;
10226;SDS011;15634;48.766;2.272;2022-10-16T12:38:19;4.07;;;2.50;;
10226;SDS011;15634;48.766;2.272;2022-10-16T12:40:53;3.13;;;2.10;;
10226;SDS011;15634;48.766;2.272;2022-10-16T12:46:33;5.82;;;2.50;;
10226;SDS011;15634;48.766;2.272;2022-10-16T12:49:06;2.83;;;2.08;;
10226;SDS011;15634;48.766;2.272;2022-10-16T12:51:44;3.97;;;2.20;;
10226;SDS011;15634;48.766;2.272;2022-10-16T12:54:11;2.60;;;2.10;;
10226;SDS011;15634;48.766;2.272;2022-10-16T12:56:41;3.55;;;2.35;;
10226;SDS011;15634;48.766;2.272;2022-10-16T12:59:16;2.55;;;2.00;;
10226;SDS011;15634;48.766;2.272;2022-10-16T13:01:54;3.35;;;2.42;;
10226;SDS011;15634;48.766;2.272;2022-10-16T13:07:34;3.83;;;2.60;;
10226;SDS011;15634;48.766;2.272;2022-10-16T13:10:14;3.00;;;2.28;;
10226;SDS011;15634;48.766;2.272;2022-10-16T13:12:58;3.60;;;2.40;;
10226;SDS011;15634;48.766;2.272;2022-10-16T13:15:37;3.38;;;2.60;;
10226;SDS011;15634;48.766;2.272;2022-10-16T13:18:11;3.53;;;2.40;;
10226;SDS011;15634;48.766;2.272;2022-10-16T13:20:44;5.47;;;2.88;;
10226;SDS011;15634;48.766;2.272;2022-10-16T13:23:21;5.50;;;2.58;;
10226;SDS011;15634;48.766;2.272;2022-10-16T13:25:55;5.22;;;2.65;;
10226;SDS011;15634;48.766;2.272;2022-10-16T13:28:27;4.50;;;2.70;;
10226;SDS011;15634;48.766;2.272;2022-10-16T13:30:57;5.60;;;3.10;;
10226;SDS011;15634;48.766;2.272;2022-10-16T13:33:26;5.95;;;2.95;;
10226;SDS011;15634;48.766;2.272;2022-10-16T13:35:57;5.32;;;3.15;;
10226;SDS011;15634;48.766;2.272;2022-10-16T13:38:25;4.38;;;2.92;;
10226;SDS011;15634;48.766;2.272;2022-10-16T13:40:53;5.03;;;2.75;;
10226;SDS011;15634;48.766;2.272;2022-10-16T13:43:22;3.50;;;2.63;;
10226;SDS011;15634;48.766;2.272;2022-10-16T13:45:58;3.20;;;2.28;;
10226;SDS011;15634;48.766;2.272;2022-10-16T13:48:26;4.30;;;2.80;;
10226;SDS011;15634;48.766;2.272;2022-10-16T13:51:00;10.15;;;5.93;;
10226;SDS011;15634;48.766;2.272;2022-10-16T13:53:29;4.20;;;3.15;;
10226;SDS011;15634;48.766;2.272;2022-10-16T13:55:57;4.97;;;2.95;;
10226;SDS011;15634;48.766;2.272;2022-10-16T13:58:25;3.70;;;2.60;;
10226;SDS011;15634;48.766;2.272;2022-10-16T14:00:53;3.97;;;2.70;;
10226;SDS011;15634;48.766;2.272;2022-10-16T14:03:21;3.70;;;2.50;;
10226;SDS011;15634;48.766;2.272;2022-10-16T14:05:49;4.75;;;2.58;;
10226;SDS011;15634;48.766;2.272;2022-10-16T14:08:33;4.32;;;2.55;;
10226;SDS011;15634;48.766;2.272;2022-10-16T14:11:00;3.17;;;2.42;;
10226;SDS011;15634;48.766;2.272;2022-10-16T14:13:29;4.75;;;2.70;;
10226;SDS011;15634;48.766;2.272;2022-10-16T14:15:56;4.95;;;2.50;;
10226;SDS011;15634;48.766;2.272;2022-10-16T14:18:24;3.53;;;2.45;;
10226;SDS011;15634;48.766;2.272;2022-10-16T14:20:52;5.43;;;2.40;;
10226;SDS011;15634;48.766;2.272;2022-10-16T14:23:19;3.53;;;2.70;;
10226;SDS011;15634;48.766;2.272;2022-10-16T14:25:48;3.45;;;2.50;;
10226;SDS011;15634;48.766;2.272;2022-10-16T14:28:15;3.55;;;2.40;;
10226;SDS011;15634;48.766;2.272;2022-10-16T14:30:49;3.13;;;2.40;;
10226;SDS011;15634;48.766;2.272;2022-10-16T14:33:23;5.20;;;2.70;;
10226;SDS011;15634;48.766;2.272;2022-10-16T14:36:00;3.33;;;2.63;;
10226;SDS011;15634;48.766;2.272;2022-10-16T14:38:27;5.40;;;2.97;;
10226;SDS011;15634;48.766;2.272;2022-10-16T14:40:56;4.40;;;2.90;;
10226;SDS011;15634;48.766;2.272;2022-10-16T14:43:25;5.25;;;3.15;;
10226;SDS011;15634;48.766;2.272;2022-10-16T14:45:53;5.93;;;3.00;;
10226;SDS011;15634;48.766;2.272;2022-10-16T14:48:20;5.18;;;3.20;;
10226;SDS011;15634;48.766;2.272;2022-10-16T14:50:46;5.15;;;2.83;;
10226;SDS011;15634;48.766;2.272;2022-10-16T14:53:13;4.63;;;2.75;;
10226;SDS011;15634;48.766;2.272;2022-10-16T14:55:40;8.60;;;3.00;;
10226;SDS011;15634;48.766;2.272;2022-10-16T14:58:10;4.47;;;3.20;;
10226;SDS011;15634;48.766;2.272;2022-10-16T15:00:39;3.50;;;3.00;;
10226;SDS011;15634;48.766;2.272;2022-10-16T15:03:05;4.85;;;3.33;;
10226;SDS011;15634;48.766;2.272;2022-10-16T15:05:32;4.65;;;3.13;;
10226;SDS011;15634;48.766;2.272;2022-10-16T15:07:58;4.93;;;3.00;;
10226;SDS011;15634;48.766;2.272;2022-10-16T15:10:25;5.00;;;3.17;;
10226;SDS011;15634;48.766;2.272;2022-10-16T15:12:52;6.05;;;4.35;;
10226;SDS011;15634;48.766;2.272;2022-10-16T15:15:32;4.47;;;3.25;;
10226;SDS011;15634;48.766;2.272;2022-10-16T15:17:59;3.90;;;2.75;;
10226;SDS011;15634;48.766;2.272;2022-10-16T15:20:26;8.25;;;3.55;;
10226;SDS011;15634;48.766;2.272;2022-10-16T15:22:53;3.72;;;3.03;;
10226;SDS011;15634;48.766;2.272;2022-10-16T15:25:26;4.40;;;3.10;;
10226;SDS011;15634;48.766;2.272;2022-10-16T15:27:53;5.25;;;3.30;;